sensor_id;sensor_type;location;lat;lon;timestamp;temperature;humidity
63094;DHT22;49183;51.380;0.098;2023-09-30T19:15:28;13.50;92.90
63094;DHT22;49183;51.380;0.098;2023-09-30T19:17:56;13.50;92.90
63094;DHT22;49183;51.380;0.098;2023-09-30T19:20:27;13.50;92.90
63094;DHT22;49183;51.380;0.098;2023-09-30T19:22:54;13.50;92.90
63094;DHT22;49183;51.380;0.098;2023-09-30T19:25:22;13.50;92.80
63094;DHT22;49183;51.380;0.098;2023-09-30T19:27:50;13.60;92.90
63094;DHT22;49183;51.380;0.098;2023-09-30T19:30:18;13.60;92.90
63094;DHT22;49183;51.380;0.098;2023-09-30T19:32:46;13.50;92.90
63094;DHT22;49183;51.380;0.098;2023-09-30T19:35:14;13.60;92.90
63094;DHT22;49183;51.380;0.098;2023-09-30T19:37:42;13.60;92.90
63094;DHT22;49183;51.380;0.098;2023-09-30T19:40:09;13.60;92.90
63094;DHT22;49183;51.380;0.098;2023-09-30T19:42:39;13.60;92.90
63094;DHT22;49183;51.380;0.098;2023-09-30T19:45:07;13.70;92.90
63094;DHT22;49183;51.380;0.098;2023-09-30T19:47:34;13.70;92.90
63094;DHT22;49183;51.380;0.098;2023-09-30T19:50:04;13.70;92.90
63094;DHT22;49183;51.380;0.098;2023-09-30T19:52:32;13.70;92.90
63094;DHT22;49183;51.380;0.098;2023-09-30T19:55:00;13.70;93.00
63094;DHT22;49183;51.380;0.098;2023-09-30T19:57:27;13.70;92.90
63094;DHT22;49183;51.380;0.098;2023-09-30T19:59:58;13.80;93.00
63094;DHT22;49183;51.380;0.098;2023-09-30T20:02:26;13.80;93.00
63094;DHT22;49183;51.380;0.098;2023-09-30T20:04:53;13.80;93.00
63094;DHT22;49183;51.380;0.098;2023-09-30T20:07:20;13.80;93.00
63094;DHT22;49183;51.380;0.098;2023-09-30T20:09:50;13.80;93.00
63094;DHT22;49183;51.380;0.098;2023-09-30T20:12:18;13.80;93.00
63094;DHT22;49183;51.380;0.098;2023-09-30T20:14:46;13.80;93.00
63094;DHT22;49183;51.380;0.098;2023-09-30T20:17:14;13.80;93.00
63094;DHT22;49183;51.380;0.098;2023-09-30T20:19:43;13.80;93.00
63094;DHT22;49183;51.380;0.098;2023-09-30T20:22:12;13.80;93.00
63094;DHT22;49183;51.380;0.098;2023-09-30T20:24:40;13.90;93.00
63094;DHT22;49183;51.380;0.098;2023-09-30T20:27:10;13.90;93.00
63094;DHT22;49183;51.380;0.098;2023-09-30T20:29:37;13.90;93.00
63094;DHT22;49183;51.380;0.098;2023-09-30T20:32:05;13.90;93.00
63094;DHT22;49183;51.380;0.098;2023-09-30T20:34:32;13.90;93.00
63094;DHT22;49183;51.380;0.098;2023-09-30T20:37:01;14.00;92.90
63094;DHT22;49183;51.380;0.098;2023-09-30T20:39:30;14.00;92.90
63094;DHT22;49183;51.380;0.098;2023-09-30T20:41:58;14.00;92.90
63094;DHT22;49183;51.380;0.098;2023-09-30T20:44:26;14.00;92.90
63094;DHT22;49183;51.380;0.098;2023-09-30T20:46:54;14.10;92.90
63094;DHT22;49183;51.380;0.098;2023-09-30T20:49:21;14.10;92.90
63094;DHT22;49183;51.380;0.098;2023-09-30T20:51:49;14.10;92.90
63094;DHT22;49183;51.380;0.098;2023-09-30T20:54:17;14.10;92.90
63094;DHT22;49183;51.380;0.098;2023-09-30T20:56:45;14.10;92.90
63094;DHT22;49183;51.380;0.098;2023-09-30T20:59:12;14.20;92.90
63094;DHT22;49183;51.380;0.098;2023-09-30T21:01:39;14.20;92.90
63094;DHT22;49183;51.380;0.098;2023-09-30T21:04:08;14.20;92.80
63094;DHT22;49183;51.380;0.098;2023-09-30T21:06:35;14.20;92.90
63094;DHT22;49183;51.380;0.098;2023-09-30T21:09:03;14.30;92.80
63094;DHT22;49183;51.380;0.098;2023-09-30T21:11:30;14.30;92.80
63094;DHT22;49183;51.380;0.098;2023-09-30T21:13:58;14.30;92.80
63094;DHT22;49183;51.380;0.098;2023-09-30T21:16:25;14.30;92.80
63094;DHT22;49183;51.380;0.098;2023-09-30T21:18:55;14.30;92.80
63094;DHT22;49183;51.380;0.098;2023-09-30T21:21:22;14.30;92.80
63094;DHT22;49183;51.380;0.098;2023-09-30T21:23:51;14.40;92.80
63094;DHT22;49183;51.380;0.098;2023-09-30T21:26:20;14.40;92.90
63094;DHT22;49183;51.380;0.098;2023-09-30T21:28:48;14.40;92.90
63094;DHT22;49183;51.380;0.098;2023-09-30T21:31:17;14.40;92.90
63094;DHT22;49183;51.380;0.098;2023-09-30T21:33:48;14.40;92.90
63094;DHT22;49183;51.380;0.098;2023-09-30T21:36:17;14.40;92.90
63094;DHT22;49183;51.380;0.098;2023-09-30T21:38:48;14.40;92.90
63094;DHT22;49183;51.380;0.098;2023-09-30T21:41:16;14.40;92.90
63094;DHT22;49183;51.380;0.098;2023-09-30T21:43:46;14.50;92.90
63094;DHT22;49183;51.380;0.098;2023-09-30T21:46:14;14.50;92.90
63094;DHT22;49183;51.380;0.098;2023-09-30T21:48:42;14.50;92.90
63094;DHT22;49183;51.380;0.098;2023-09-30T21:51:09;14.50;92.90
63094;DHT22;49183;51.380;0.098;2023-09-30T21:53:37;14.50;93.00
63094;DHT22;49183;51.380;0.098;2023-09-30T21:56:04;14.60;93.00
63094;DHT22;49183;51.380;0.098;2023-09-30T21:58:32;14.60;93.00
63094;DHT22;49183;51.380;0.098;2023-09-30T22:00:59;14.60;93.00
63094;DHT22;49183;51.380;0.098;2023-09-30T22:03:27;14.60;93.00
63094;DHT22;49183;51.380;0.098;2023-09-30T22:05:55;14.60;93.00
63094;DHT22;49183;51.380;0.098;2023-09-30T22:08:24;14.60;93.00
63094;DHT22;49183;51.380;0.098;2023-09-30T22:10:54;14.60;93.00
63094;DHT22;49183;51.380;0.098;2023-09-30T22:13:22;14.70;93.10
63094;DHT22;49183;51.380;0.098;2023-09-30T22:15:52;14.70;93.10
63094;DHT22;49183;51.380;0.098;2023-09-30T22:18:24;14.70;93.10
63094;DHT22;49183;51.380;0.098;2023-09-30T22:20:51;14.80;93.10
63094;DHT22;49183;51.380;0.098;2023-09-30T22:23:20;14.80;93.10
63094;DHT22;49183;51.380;0.098;2023-09-30T22:25:49;14.70;93.10
63094;DHT22;49183;51.380;0.098;2023-09-30T22:28:16;14.80;93.10
63094;DHT22;49183;51.380;0.098;2023-09-30T22:30:44;14.80;93.20
63094;DHT22;49183;51.380;0.098;2023-09-30T22:33:14;14.80;93.20
63094;DHT22;49183;51.380;0.098;2023-09-30T22:35:41;14.80;93.20
63094;DHT22;49183;51.380;0.098;2023-09-30T22:38:09;14.80;93.20
63094;DHT22;49183;51.380;0.098;2023-09-30T22:40:36;14.80;93.20
63094;DHT22;49183;51.380;0.098;2023-09-30T22:43:04;14.80;93.30
63094;DHT22;49183;51.380;0.098;2023-09-30T22:45:36;14.80;93.30
63094;DHT22;49183;51.380;0.098;2023-09-30T22:48:04;14.80;93.30
63094;DHT22;49183;51.380;0.098;2023-09-30T22:50:31;14.80;93.30
63094;DHT22;49183;51.380;0.098;2023-09-30T22:53:00;14.80;93.30
63094;DHT22;49183;51.380;0.098;2023-09-30T22:55:29;14.90;93.40
63094;DHT22;49183;51.380;0.098;2023-09-30T22:57:57;14.80;93.40
63094;DHT22;49183;51.380;0.098;2023-09-30T23:00:24;14.90;93.40
63094;DHT22;49183;51.380;0.098;2023-09-30T23:02:55;14.90;93.40
63094;DHT22;49183;51.380;0.098;2023-09-30T23:05:23;14.90;93.50
63094;DHT22;49183;51.380;0.098;2023-09-30T23:07:55;14.90;93.50
63094;DHT22;49183;51.380;0.098;2023-09-30T23:10:22;14.90;93.50
63094;DHT22;49183;51.380;0.098;2023-09-30T23:12:50;14.90;93.60
63094;DHT22;49183;51.380;0.098;2023-09-30T23:15:19;14.90;93.60
63094;DHT22;49183;51.380;0.098;2023-09-30T23:17:48;14.90;93.60
63094;DHT22;49183;51.380;0.098;2023-09-30T23:20:16;14.90;93.70
63094;DHT22;49183;51.380;0.098;2023-09-30T23:22:48;15.00;93.70
63094;DHT22;49183;51.380;0.098;2023-09-30T23:25:19;15.00;93.70
63094;DHT22;49183;51.380;0.098;2023-09-30T23:27:54;15.00;93.80
63094;DHT22;49183;51.380;0.098;2023-09-30T23:30:22;15.00;93.80
63094;DHT22;49183;51.380;0.098;2023-09-30T23:32:51;15.00;93.90
63094;DHT22;49183;51.380;0.098;2023-09-30T23:35:21;15.10;93.90
63094;DHT22;49183;51.380;0.098;2023-09-30T23:37:53;15.10;93.90
63094;DHT22;49183;51.380;0.098;2023-09-30T23:40:25;15.10;93.90
63094;DHT22;49183;51.380;0.098;2023-09-30T23:42:52;15.10;93.90
63094;DHT22;49183;51.380;0.098;2023-09-30T23:45:21;15.20;94.00
63094;DHT22;49183;51.380;0.098;2023-09-30T23:47:49;15.20;94.00
63094;DHT22;49183;51.380;0.098;2023-09-30T23:50:18;15.20;94.00
63094;DHT22;49183;51.380;0.098;2023-09-30T23:52:47;15.20;94.00
63094;DHT22;49183;51.380;0.098;2023-09-30T23:55:19;15.20;94.00
63094;DHT22;49183;51.380;0.098;2023-09-30T23:57:52;15.30;94.00
